createdAt,value
2018-03-28T00:00:31.094Z,72.00
2018-03-28T00:02:58.524Z,70.50
2018-03-28T00:05:25.934Z,81.10
2018-03-28T00:07:53.359Z,68.43
2018-03-28T00:10:20.841Z,79.45
2018-03-28T00:12:48.288Z,64.77
2018-03-28T00:15:15.699Z,66.90
2018-03-28T00:17:43.131Z,72.00
2018-03-28T00:20:10.597Z,74.87
2018-03-28T00:22:38.808Z,80.57
2018-03-28T00:25:06.217Z,80.30
2018-03-28T00:27:34.432Z,83.70
2018-03-28T00:30:01.866Z,84.93
2018-03-28T00:32:29.269Z,72.43
2018-03-28T00:34:56.706Z,87.27
2018-03-28T00:37:24.893Z,74.47
2018-03-28T00:39:53.075Z,81.40
2018-03-28T00:42:20.547Z,91.00
2018-03-28T00:44:47.937Z,82.20
2018-03-28T00:47:15.346Z,90.27
2018-03-28T00:49:42.780Z,79.67
2018-03-28T00:52:10.186Z,93.80
2018-03-28T00:54:37.609Z,83.53
2018-03-28T00:57:05.808Z,90.00
2018-03-28T00:59:33.214Z,87.13
2018-03-28T01:02:00.642Z,79.57
2018-03-28T01:04:28.054Z,88.80
2018-03-28T01:06:55.494Z,80.23
2018-03-28T01:09:22.924Z,92.07
2018-03-28T01:11:50.341Z,84.47
2018-03-28T01:14:17.751Z,90.20
2018-03-28T01:16:45.979Z,89.07
2018-03-28T01:19:13.438Z,86.47
2018-03-28T01:21:40.875Z,92.10
2018-03-28T01:24:09.804Z,88.60
2018-03-28T01:26:37.231Z,86.28
2018-03-28T01:29:04.647Z,89.10
2018-03-28T01:31:32.463Z,75.62
2018-03-28T01:33:59.889Z,90.90
2018-03-28T01:36:27.328Z,97.80
2018-03-28T01:38:55.517Z,93.57
2018-03-28T01:41:22.926Z,98.37
2018-03-28T01:43:50.341Z,95.20
2018-03-28T01:46:17.763Z,78.50
2018-03-28T01:48:45.205Z,88.90
2018-03-28T01:51:12.651Z,95.45
2018-03-28T01:53:40.851Z,86.33
2018-03-28T01:56:09.030Z,86.50
2018-03-28T01:58:37.241Z,85.27
2018-03-28T02:01:04.657Z,87.20
2018-03-28T02:03:33.002Z,88.17
2018-03-28T02:06:00.438Z,84.87
2018-03-28T02:08:27.874Z,80.30
2018-03-28T02:10:55.330Z,87.23
2018-03-28T02:13:22.759Z,83.17
2018-03-28T02:15:50.167Z,78.10
2018-03-28T02:18:17.601Z,79.10
2018-03-28T02:20:45.844Z,79.47
2018-03-28T02:23:13.353Z,72.30
2018-03-28T02:25:41.529Z,85.13
2018-03-28T02:28:09.724Z,80.30
2018-03-28T02:30:37.944Z,81.03
2018-03-28T02:33:05.376Z,83.37
2018-03-28T02:35:34.178Z,81.12
2018-03-28T02:38:03.287Z,76.80
2018-03-28T02:40:31.500Z,82.73
2018-03-28T02:42:58.907Z,78.40
2018-03-28T02:45:26.371Z,76.83
2018-03-28T02:47:53.798Z,77.83
2018-03-28T02:50:21.981Z,87.13
2018-03-28T02:52:49.387Z,81.10
2018-03-28T02:55:16.819Z,78.10
2018-03-28T02:57:44.252Z,86.20
2018-03-28T03:00:11.666Z,83.57
2018-03-28T03:02:39.111Z,76.07
2018-03-28T03:05:07.323Z,69.97
2018-03-28T03:07:34.746Z,76.50
2018-03-28T03:10:03.868Z,79.23
2018-03-28T03:12:32.055Z,76.43
2018-03-28T03:15:00.244Z,68.47
2018-03-28T03:17:28.441Z,85.47
2018-03-28T03:19:55.858Z,74.20
2018-03-28T03:22:23.290Z,75.18
2018-03-28T03:24:50.730Z,71.87
2018-03-28T03:27:18.937Z,76.37
2018-03-28T03:29:46.370Z,75.93
2018-03-28T03:32:14.571Z,67.73
2018-03-28T03:34:42.769Z,68.90
2018-03-28T03:37:11.066Z,64.20
2018-03-28T03:39:38.529Z,68.83
2018-03-28T03:42:05.947Z,74.60
2018-03-28T03:44:33.362Z,73.50
2018-03-28T03:47:00.773Z,64.67
2018-03-28T03:49:28.188Z,74.03
2018-03-28T03:51:57.054Z,58.43
2018-03-28T03:54:24.492Z,65.90
2018-03-28T03:56:51.929Z,63.95
2018-03-28T03:59:20.126Z,71.00
2018-03-28T04:01:47.565Z,72.70
2018-03-28T04:04:15.762Z,65.03
2018-03-28T04:06:43.934Z,65.30
2018-03-28T04:09:11.374Z,62.80
2018-03-28T04:11:38.798Z,65.83
2018-03-28T04:14:06.268Z,69.07
2018-03-28T04:16:33.885Z,69.30
2018-03-28T04:19:01.310Z,63.47
2018-03-28T04:21:28.762Z,54.77
2018-03-28T04:23:56.164Z,76.50
2018-03-28T04:26:23.582Z,66.10
2018-03-28T04:28:51.003Z,66.27
2018-03-28T04:31:18.424Z,65.37
2018-03-28T04:33:45.841Z,58.10
2018-03-28T04:36:13.268Z,49.37
2018-03-28T04:38:41.451Z,71.00
2018-03-28T04:41:09.660Z,63.40
2018-03-28T04:43:37.135Z,63.27
2018-03-28T04:46:05.488Z,67.40
2018-03-28T04:48:32.935Z,55.70
2018-03-28T04:51:00.376Z,64.30
2018-03-28T04:53:27.794Z,59.97
2018-03-28T04:55:55.247Z,61.07
2018-03-28T04:58:22.688Z,65.27
2018-03-28T05:00:50.128Z,57.58
2018-03-28T05:03:17.558Z,58.23
2018-03-28T05:05:45.065Z,62.50
2018-03-28T05:08:13.350Z,73.07
2018-03-28T05:10:40.786Z,67.10
2018-03-28T05:13:08.238Z,63.93
2018-03-28T05:15:36.819Z,72.85
2018-03-28T05:18:04.996Z,65.37
2018-03-28T05:20:32.418Z,63.43
2018-03-28T05:23:00.629Z,62.33
2018-03-28T05:25:28.082Z,60.30
2018-03-28T05:27:56.359Z,64.43
2018-03-28T05:30:24.590Z,64.50
2018-03-28T05:32:52.008Z,60.43
2018-03-28T05:35:19.458Z,57.07
2018-03-28T05:37:46.857Z,66.00
2018-03-28T05:40:15.074Z,63.63
2018-03-28T05:42:42.503Z,64.20
2018-03-28T05:45:09.964Z,71.43
2018-03-28T05:47:37.360Z,71.33
2018-03-28T05:50:06.470Z,67.80
2018-03-28T05:52:33.949Z,62.03
2018-03-28T05:55:01.375Z,58.80
2018-03-28T05:57:28.907Z,65.67
2018-03-28T05:59:56.337Z,67.23
2018-03-28T06:02:24.546Z,61.97
2018-03-28T06:04:51.972Z,62.97
2018-03-28T06:07:19.450Z,61.60
2018-03-28T06:09:46.826Z,70.53
2018-03-28T06:12:15.009Z,60.80
2018-03-28T06:14:43.204Z,58.47
2018-03-28T06:17:11.433Z,70.57
2018-03-28T06:19:38.865Z,75.47
2018-03-28T06:22:07.654Z,64.97
2018-03-28T06:24:36.900Z,67.37
2018-03-28T06:27:04.310Z,80.33
2018-03-28T06:29:31.728Z,68.40
2018-03-28T06:31:59.187Z,68.70
2018-03-28T06:34:26.618Z,71.33
2018-03-28T06:36:54.817Z,66.63
2018-03-28T06:39:23.024Z,68.70
2018-03-28T06:41:50.442Z,64.70
2018-03-28T06:44:17.858Z,73.03
2018-03-28T06:46:45.278Z,71.13
2018-03-28T06:49:12.702Z,79.33
2018-03-28T06:51:40.130Z,65.30
2018-03-28T06:54:08.314Z,70.33
2018-03-28T06:56:35.753Z,61.07
2018-03-28T06:59:03.194Z,68.77
2018-03-28T07:01:30.618Z,74.90
2018-03-28T07:03:58.060Z,73.53
2018-03-28T07:06:25.452Z,72.60
2018-03-28T07:08:52.885Z,72.70
2018-03-28T07:11:20.305Z,67.70
2018-03-28T07:13:48.541Z,75.03
2018-03-28T07:16:15.990Z,66.57
2018-03-28T07:18:43.413Z,74.30
2018-03-28T07:21:12.377Z,73.73
2018-03-28T07:23:39.805Z,74.20
2018-03-28T07:26:08.592Z,74.28
2018-03-28T07:28:36.025Z,76.70
2018-03-28T07:31:03.453Z,68.07
2018-03-28T07:33:31.634Z,74.87
2018-03-28T07:35:59.820Z,71.30
2018-03-28T07:38:28.053Z,72.23
2018-03-28T07:40:55.494Z,79.10
2018-03-28T07:43:23.035Z,73.40
2018-03-28T07:45:50.451Z,78.27
2018-03-28T07:48:17.883Z,76.53
2018-03-28T07:50:46.101Z,81.50
2018-03-28T07:53:14.453Z,82.87
2018-03-28T07:55:41.868Z,72.70
2018-03-28T07:58:09.296Z,72.07
2018-03-28T08:00:36.723Z,77.83
2018-03-28T08:03:04.161Z,78.97
2018-03-28T08:05:31.573Z,87.70
2018-03-28T08:07:59.004Z,82.47
2018-03-28T08:10:26.617Z,82.53
2018-03-28T08:12:54.044Z,80.83
2018-03-28T08:15:21.483Z,86.23
2018-03-28T08:17:48.910Z,86.17
2018-03-28T08:20:16.349Z,88.18
2018-03-28T08:22:43.774Z,85.37
2018-03-28T08:25:11.285Z,88.23
2018-03-28T08:27:38.766Z,88.37
2018-03-28T08:30:06.193Z,91.60
2018-03-28T08:32:33.911Z,91.57
2018-03-28T08:35:01.371Z,83.30
2018-03-28T08:37:29.542Z,93.13
2018-03-28T08:39:57.039Z,110.37
2018-03-28T08:42:24.465Z,99.90
2018-03-28T08:44:52.670Z,111.10
2018-03-28T08:47:20.863Z,118.47
2018-03-28T08:49:48.302Z,119.67
2018-03-28T08:52:16.522Z,135.63
2018-03-28T08:54:43.937Z,131.30
2018-03-28T08:57:11.343Z,130.70
2018-03-28T08:59:40.533Z,136.55
2018-03-28T09:02:08.886Z,145.95
2018-03-28T09:04:36.306Z,141.77
2018-03-28T09:07:04.495Z,131.80
2018-03-28T09:09:32.681Z,147.63
2018-03-28T09:12:00.862Z,148.53
2018-03-28T09:14:29.078Z,146.63
2018-03-28T09:16:56.515Z,140.37
2018-03-28T09:19:24.712Z,125.50
2018-03-28T09:21:52.899Z,125.73
2018-03-28T09:24:21.080Z,122.93
2018-03-28T09:26:49.262Z,126.07
2018-03-28T09:29:17.448Z,122.17
2018-03-28T09:31:45.669Z,120.78
2018-03-28T09:34:13.130Z,128.17
2018-03-28T09:36:40.642Z,107.50
2018-03-28T09:39:08.247Z,134.40
2018-03-28T09:41:36.457Z,123.37
2018-03-28T09:44:03.915Z,116.00
2018-03-28T09:46:31.346Z,122.53
2018-03-28T09:48:58.814Z,130.00
2018-03-28T09:51:26.244Z,123.20
2018-03-28T09:53:53.697Z,120.37
2018-03-28T09:56:21.863Z,137.60
2018-03-28T09:58:50.058Z,142.00
2018-03-28T10:01:23.154Z,141.50
2018-03-28T10:03:51.328Z,120.73
2018-03-28T10:06:19.522Z,119.13
2018-03-28T10:08:48.685Z,115.10
2018-03-28T10:11:15.165Z,125.30
2018-03-28T10:13:43.366Z,127.43
2018-03-28T10:16:11.543Z,131.03
2018-03-28T10:18:40.697Z,148.10
2018-03-28T10:21:08.138Z,128.25
2018-03-28T10:23:35.573Z,108.00
2018-03-28T10:26:02.994Z,107.53
2018-03-28T10:28:30.406Z,112.90
2018-03-28T10:30:57.841Z,114.30
2018-03-28T10:33:25.257Z,118.73
2018-03-28T10:35:52.691Z,125.57
2018-03-28T10:38:20.112Z,126.90
2018-03-28T10:40:47.530Z,128.27
2018-03-28T10:43:14.951Z,94.83
2018-03-28T10:45:42.737Z,113.00
2018-03-28T10:48:11.114Z,113.82
2018-03-28T10:50:38.576Z,122.35
2018-03-28T10:53:06.778Z,108.80
2018-03-28T10:55:34.227Z,115.57
2018-03-28T10:58:02.411Z,120.50
2018-03-28T11:00:30.599Z,116.13
2018-03-28T11:02:58.811Z,120.87
2018-03-28T11:05:26.230Z,109.97
2018-03-28T11:07:53.645Z,126.23
2018-03-28T11:10:21.174Z,104.20
2018-03-28T11:12:48.602Z,117.67
2018-03-28T11:15:16.038Z,119.17
2018-03-28T11:17:44.217Z,116.83
2018-03-28T11:20:12.425Z,128.00
2018-03-28T11:22:40.790Z,133.90
2018-03-28T11:25:08.986Z,133.87
2018-03-28T11:27:37.182Z,149.10
2018-03-28T11:30:04.765Z,139.43
2018-03-28T11:32:32.230Z,98.83
2018-03-28T11:34:59.626Z,143.13
2018-03-28T11:37:27.061Z,143.07
2018-03-28T11:39:54.469Z,136.10
2018-03-28T11:42:21.900Z,133.53
2018-03-28T11:44:49.305Z,133.10
2018-03-28T11:47:16.731Z,118.93
2018-03-28T11:49:44.205Z,106.30
2018-03-28T11:52:11.681Z,114.30
2018-03-28T11:54:39.102Z,116.30
2018-03-28T11:57:06.589Z,114.13
2018-03-28T11:59:34.047Z,106.63
2018-03-28T12:02:02.231Z,104.80
2018-03-28T12:04:30.441Z,108.17
2018-03-28T12:06:57.938Z,96.77
2018-03-28T12:09:25.331Z,96.67
2018-03-28T12:11:54.273Z,95.33
2018-03-28T12:14:22.458Z,98.60
2018-03-28T12:16:50.641Z,89.97
2018-03-28T12:19:18.857Z,97.13
2018-03-28T12:21:46.294Z,90.67
2018-03-28T12:24:14.473Z,94.67
2018-03-28T12:26:41.919Z,107.77
2018-03-28T12:29:09.322Z,95.23
2018-03-28T12:31:37.524Z,82.47
2018-03-28T12:34:04.940Z,99.87
2018-03-28T12:36:32.389Z,93.80
2018-03-28T12:38:59.813Z,90.90
2018-03-28T12:41:28.028Z,89.70
2018-03-28T12:43:55.462Z,86.70
2018-03-28T12:46:23.671Z,90.43
2018-03-28T12:48:51.158Z,84.20
2018-03-28T12:51:18.574Z,79.40
2018-03-28T12:53:46.813Z,90.03
2018-03-28T12:56:14.227Z,88.73
2018-03-28T12:58:42.962Z,101.97
2018-03-28T13:01:12.070Z,98.90
2018-03-28T13:03:39.500Z,93.40
2018-03-28T13:06:06.928Z,95.20
2018-03-28T13:08:34.370Z,101.63
2018-03-28T13:11:01.872Z,90.33
2018-03-28T13:13:29.999Z,110.40
2018-03-28T13:15:58.252Z,91.80
2018-03-28T13:18:25.659Z,93.13
2018-03-28T13:20:53.856Z,95.80
2018-03-28T13:23:22.048Z,98.23
2018-03-28T13:25:50.220Z,107.73
2018-03-28T13:28:26.108Z,95.53
2018-03-28T13:30:53.521Z,99.70
2018-03-28T13:33:21.053Z,94.57
2018-03-28T13:35:48.489Z,105.63
2018-03-28T13:38:16.697Z,95.77
2018-03-28T13:40:44.131Z,78.20
2018-03-28T13:43:11.544Z,94.47
2018-03-28T13:45:38.966Z,91.63
2018-03-28T13:48:07.142Z,90.90
2018-03-28T13:50:34.571Z,91.23
2018-03-28T13:53:02.057Z,92.40
2018-03-28T13:55:29.461Z,83.90
2018-03-28T13:57:57.635Z,65.20
2018-03-28T14:00:25.066Z,81.47
2018-03-28T14:02:52.471Z,85.90
2018-03-28T14:05:19.883Z,88.50
2018-03-28T14:07:48.179Z,67.47
2018-03-28T14:10:15.609Z,72.73
2018-03-28T14:12:43.943Z,72.80
2018-03-28T14:15:11.402Z,81.30
2018-03-28T14:17:38.842Z,104.47
2018-03-28T14:20:07.061Z,100.03
2018-03-28T14:22:34.468Z,90.37
2018-03-28T14:25:01.912Z,99.80
2018-03-28T14:27:29.318Z,84.47
2018-03-28T14:29:58.266Z,85.47
2018-03-28T14:32:25.668Z,83.40
2018-03-28T14:34:53.102Z,91.70
2018-03-28T14:37:20.542Z,97.13
2018-03-28T14:39:48.757Z,89.43
2018-03-28T14:42:16.166Z,95.33
2018-03-28T14:44:43.626Z,109.53
2018-03-28T14:47:11.057Z,114.10
2018-03-28T14:49:38.485Z,105.43
2018-03-28T14:52:05.904Z,95.60
2018-03-28T14:54:33.356Z,104.93
2018-03-28T14:57:00.777Z,88.67
2018-03-28T14:59:28.203Z,91.63
2018-03-28T15:01:55.611Z,112.33
2018-03-28T15:04:23.034Z,90.20
2018-03-28T15:06:50.459Z,62.23
2018-03-28T15:09:17.934Z,107.50
2018-03-28T15:11:45.339Z,104.93
2018-03-28T15:14:12.802Z,109.70
2018-03-28T15:16:41.007Z,104.47
2018-03-28T15:19:08.478Z,109.30
2018-03-28T15:21:35.916Z,101.87
2018-03-28T15:24:04.115Z,107.47
2018-03-28T15:26:32.285Z,115.83
2018-03-28T15:29:00.500Z,109.60
2018-03-28T15:31:27.923Z,79.83
2018-03-28T15:33:55.368Z,125.10
2018-03-28T15:36:22.794Z,121.90
2018-03-28T15:38:50.233Z,110.67
2018-03-28T15:41:18.435Z,124.17
2018-03-28T15:43:46.670Z,108.20
2018-03-28T15:46:14.510Z,125.60
2018-03-28T15:48:41.946Z,129.97
2018-03-28T15:51:10.363Z,108.53
2018-03-28T15:53:37.830Z,111.40
2018-03-28T15:56:05.249Z,115.40
2018-03-28T15:58:32.668Z,134.68
2018-03-28T16:01:00.083Z,124.40
2018-03-28T16:03:27.508Z,104.07
2018-03-28T16:05:54.930Z,137.27
2018-03-28T16:08:22.353Z,124.83
2018-03-28T16:10:49.770Z,117.53
2018-03-28T16:13:17.308Z,126.37
2018-03-28T16:15:45.585Z,123.97
2018-03-28T16:18:13.004Z,114.00
2018-03-28T16:20:40.423Z,118.87
2018-03-28T16:23:07.881Z,90.10
2018-03-28T16:25:35.357Z,110.37
2018-03-28T16:28:02.806Z,114.17
2018-03-28T16:30:30.227Z,87.60
2018-03-28T16:32:57.654Z,95.43
2018-03-28T16:35:25.123Z,92.87
2018-03-28T16:37:52.551Z,87.47
2018-03-28T16:40:20.004Z,78.60
2018-03-28T16:42:47.443Z,77.80
2018-03-28T16:45:16.003Z,60.07
2018-03-28T16:47:45.114Z,74.40
2018-03-28T16:50:13.314Z,73.80
2018-03-28T16:52:40.818Z,74.93
2018-03-28T16:55:08.278Z,77.00
2018-03-28T16:57:35.694Z,78.33
2018-03-28T17:00:03.884Z,73.97
2018-03-28T17:02:32.064Z,75.90
2018-03-28T17:04:59.486Z,76.47
2018-03-28T17:07:26.935Z,82.00
2018-03-28T17:09:55.112Z,76.20
2018-03-28T17:12:22.551Z,74.20
2018-03-28T17:14:49.965Z,68.03
2018-03-28T17:17:17.419Z,68.80
2018-03-28T17:19:46.425Z,76.85
2018-03-28T17:22:13.852Z,77.77
2018-03-28T17:24:41.295Z,74.30
2018-03-28T17:27:09.100Z,74.77
2018-03-28T17:29:36.618Z,76.87
2018-03-28T17:32:04.042Z,60.97
2018-03-28T17:34:31.517Z,66.37
2018-03-28T17:36:58.934Z,75.62
2018-03-28T17:39:26.361Z,59.63
2018-03-28T17:41:54.559Z,86.97
2018-03-28T17:44:21.969Z,83.03
2018-03-28T17:46:49.395Z,90.20
2018-03-28T17:49:16.812Z,80.87
2018-03-28T17:51:44.258Z,95.82
2018-03-28T17:54:11.698Z,82.97
2018-03-28T17:56:39.887Z,103.00
2018-03-28T17:59:07.336Z,105.67
2018-03-28T18:01:34.760Z,102.67
2018-03-28T18:04:02.188Z,91.00
2018-03-28T18:06:29.590Z,93.83
2018-03-28T18:08:57.022Z,103.60
2018-03-28T18:11:24.442Z,98.93
2018-03-28T18:13:51.857Z,77.27
2018-03-28T18:16:20.038Z,69.73
2018-03-28T18:18:47.465Z,78.80
2018-03-28T18:21:14.919Z,68.27
2018-03-28T18:23:42.351Z,69.27
2018-03-28T18:26:10.610Z,50.20
2018-03-28T18:28:38.064Z,74.97
2018-03-28T18:31:05.466Z,82.53
2018-03-28T18:33:33.672Z,81.50
2018-03-28T18:36:01.997Z,71.37
2018-03-28T18:38:29.407Z,77.57
2018-03-28T18:40:56.840Z,79.97
2018-03-28T18:43:24.255Z,87.80
2018-03-28T18:45:52.450Z,82.20
2018-03-28T18:48:20.647Z,58.33
2018-03-28T18:50:48.052Z,76.73
2018-03-28T18:53:15.502Z,81.50
2018-03-28T18:55:42.938Z,89.10
2018-03-28T18:58:11.722Z,59.00
2018-03-28T19:00:39.958Z,64.87
2018-03-28T19:03:07.394Z,73.40
2018-03-28T19:05:34.840Z,65.33
2018-03-28T19:08:02.321Z,81.03
2018-03-28T19:10:29.697Z,74.60
2018-03-28T19:12:57.883Z,74.43
2018-03-28T19:15:25.306Z,56.30
2018-03-28T19:17:52.770Z,61.43
2018-03-28T19:20:20.204Z,54.10
2018-03-28T19:22:47.622Z,54.73
2018-03-28T19:25:15.151Z,65.37
2018-03-28T19:27:42.571Z,60.33
2018-03-28T19:30:10.779Z,78.37
2018-03-28T19:32:38.989Z,69.90
2018-03-28T19:35:06.399Z,62.60
2018-03-28T19:37:33.925Z,65.90
2018-03-28T19:40:01.370Z,69.70
2018-03-28T19:42:28.794Z,48.80
2018-03-28T19:44:56.210Z,50.17
2018-03-28T19:47:23.630Z,79.80
2018-03-28T19:49:51.074Z,67.60
2018-03-28T19:52:18.490Z,68.80
2018-03-28T19:54:46.687Z,70.28
2018-03-28T19:57:14.864Z,109.97
2018-03-28T19:59:43.070Z,55.50
2018-03-28T20:02:11.267Z,62.00
2018-03-28T20:04:38.697Z,58.47
2018-03-28T20:07:06.238Z,69.57
2018-03-28T20:09:33.662Z,42.27
2018-03-28T20:12:01.844Z,74.57
2018-03-28T20:14:30.034Z,62.73
2018-03-28T20:16:57.470Z,82.77
2018-03-28T20:19:24.898Z,81.30
2018-03-28T20:21:52.334Z,79.90
2018-03-28T20:24:20.536Z,78.80
2018-03-28T20:26:49.310Z,59.97
2018-03-28T20:29:18.405Z,73.83
2018-03-28T20:31:45.851Z,68.77
2018-03-28T20:34:13.274Z,72.87
2018-03-28T20:36:40.697Z,93.27
2018-03-28T20:39:08.116Z,57.87
2018-03-28T20:41:35.546Z,75.43
2018-03-28T20:44:02.957Z,75.37
2018-03-28T20:46:30.380Z,91.75
2018-03-28T20:48:57.804Z,83.83
2018-03-28T20:51:25.257Z,80.03
2018-03-28T20:53:52.746Z,74.62
2018-03-28T20:56:20.176Z,83.00
2018-03-28T20:58:49.278Z,79.95
2018-03-28T21:01:17.496Z,79.05
2018-03-28T21:03:44.962Z,94.17
2018-03-28T21:06:12.402Z,83.23
2018-03-28T21:08:39.809Z,80.67
2018-03-28T21:11:07.231Z,71.97
2018-03-28T21:13:34.727Z,78.43
2018-03-28T21:16:02.146Z,77.17
2018-03-28T21:18:29.558Z,73.10
2018-03-28T21:20:56.991Z,81.33
2018-03-28T21:23:24.520Z,83.13
2018-03-28T21:25:51.921Z,85.50
2018-03-28T21:28:19.356Z,83.47
2018-03-28T21:30:46.856Z,82.33
2018-03-28T21:33:14.264Z,86.32
2018-03-28T21:35:42.467Z,70.20
2018-03-28T21:38:09.916Z,88.83
2018-03-28T21:40:38.096Z,78.18
2018-03-28T21:43:05.514Z,87.67
2018-03-28T21:45:32.919Z,93.90
2018-03-28T21:48:00.359Z,93.20
2018-03-28T21:50:27.769Z,87.30
2018-03-28T21:52:55.970Z,94.50
2018-03-28T21:55:24.150Z,100.73
2018-03-28T21:57:53.305Z,91.30
2018-03-28T22:00:20.782Z,97.45
2018-03-28T22:02:48.194Z,99.40
2018-03-28T22:05:16.401Z,100.97
2018-03-28T22:07:43.850Z,106.30
2018-03-28T22:10:11.260Z,104.80
2018-03-28T22:12:38.695Z,100.87
2018-03-28T22:15:06.110Z,108.63
2018-03-28T22:17:33.548Z,94.20
2018-03-28T22:20:00.962Z,118.47
2018-03-28T22:22:28.562Z,116.17
2018-03-28T22:24:56.734Z,113.00
2018-03-28T22:27:24.962Z,104.70
2018-03-28T22:29:52.391Z,117.60
2018-03-28T22:32:21.109Z,122.60
2018-03-28T22:34:50.206Z,116.50
2018-03-28T22:37:17.627Z,96.73
2018-03-28T22:39:45.055Z,89.23
2018-03-28T22:42:12.478Z,101.43
2018-03-28T22:44:39.931Z,87.10
2018-03-28T22:47:07.343Z,80.10
2018-03-28T22:49:35.535Z,75.37
2018-03-28T22:52:03.709Z,73.53
2018-03-28T22:54:31.898Z,62.33
2018-03-28T22:57:00.137Z,57.50
2018-03-28T22:59:27.546Z,56.00
2018-03-28T23:01:55.733Z,58.17
2018-03-28T23:04:23.174Z,56.90
2018-03-28T23:06:51.803Z,51.63
2018-03-28T23:09:20.914Z,46.83
2018-03-28T23:11:49.090Z,44.67
2018-03-28T23:14:16.595Z,48.37
2018-03-28T23:16:44.003Z,46.13
2018-03-28T23:19:11.434Z,36.60
2018-03-28T23:21:38.865Z,39.90
2018-03-28T23:24:06.270Z,31.10
2018-03-28T23:26:33.793Z,28.93
2018-03-28T23:29:01.204Z,26.43
2018-03-28T23:31:28.634Z,24.30
2018-03-28T23:33:56.051Z,16.60
2018-03-28T23:36:23.474Z,24.43
2018-03-28T23:38:52.403Z,24.37
2018-03-28T23:41:19.824Z,24.65
2018-03-28T23:43:47.253Z,24.13
2018-03-28T23:46:14.675Z,25.13
2018-03-28T23:48:42.114Z,23.57
2018-03-28T23:51:09.533Z,24.20
2018-03-28T23:53:37.721Z,27.08
2018-03-28T23:56:05.900Z,36.03
2018-03-28T23:58:34.079Z,25.87
